Time;durP1;ratioP1;P1;durP2;ratioP2;P2;SDS_P1;SDS_P2;PMS_P1;PMS_P2;Temp;Humidity;BMP_temperature;BMP_pressure;BME280_temperature;BME280_humidity;BME280_pressure;Samples;Min_cycle;Max_cycle;Signal;HPM_P1;HPM_P2
2023/07/30 04:02:19;;;;;;;;;;;15.70;99.90;;;;;;5132164;23;20328;-78
2023/07/30 04:04:46;;;;;;;;;;;15.70;99.90;;;;;;4973379;28;20021;-78
2023/07/30 04:07:11;;;;;;;;;;;15.70;99.90;;;;;;4974621;28;20029;-78
2023/07/30 04:09:37;;;;;;;;;;;15.70;99.90;;;;;;4973567;28;19976;-79
2023/07/30 04:12:03;;;;;;;;;;;15.70;99.90;;;;;;4974516;28;19922;-77
2023/07/30 04:14:28;;;;;;;;;;;15.70;99.90;;;;;;4974989;28;19928;-77
2023/07/30 04:16:54;;;;;;;;;;;15.70;99.90;;;;;;4973227;28;20441;-78
2023/07/30 04:19:20;;;;;;;;;;;15.70;99.90;;;;;;4973323;28;19922;-79
2023/07/30 04:21:46;;;;;;;;;;;15.70;99.90;;;;;;4973148;28;19933;-77
2023/07/30 04:24:11;;;;;;;;;;;15.70;99.90;;;;;;4973177;28;20009;-78
2023/07/30 04:26:37;;;;;;;;;;;15.70;99.90;;;;;;4974079;28;19926;-78
2023/07/30 04:29:02;;;;;;;;;;;15.60;99.90;;;;;;4976777;28;19930;-78
2023/07/30 04:31:28;;;;;;;;;;;15.70;99.90;;;;;;4976734;28;19929;-77
2023/07/30 04:33:54;;;;;;;;;;;15.70;99.90;;;;;;4976528;28;19922;-77
2023/07/30 04:36:19;;;;;;;;;;;15.70;99.90;;;;;;4976561;28;19969;-78
2023/07/30 04:38:45;;;;;;;;;;;15.70;99.90;;;;;;4976491;28;19933;-79
2023/07/30 04:41:10;;;;;;;;;;;15.70;99.90;;;;;;4976355;28;19973;-77
2023/07/30 04:43:36;;;;;;;;;;;15.70;99.90;;;;;;4976639;28;20057;-79
2023/07/30 04:46:01;;;;;;;;;;;15.70;99.90;;;;;;4976370;28;20386;-76
2023/07/30 04:48:27;;;;;;;;;;;15.70;99.90;;;;;;4976470;28;20333;-77
2023/07/30 04:50:52;;;;;;;;;;;15.70;99.90;;;;;;4975845;28;20004;-78
2023/07/30 04:53:20;;;;;;;;;;;15.70;99.90;;;;;;4976131;28;20002;-78
2023/07/30 04:55:46;;;;;;;;;;;15.70;99.90;;;;;;4976435;28;19972;-79
2023/07/30 04:58:11;;;;;;;;;;;15.70;99.90;;;;;;4977391;28;19923;-78
2023/07/30 05:00:37;;;;;;;;;;;15.80;99.90;;;;;;4975965;28;19926;-78
2023/07/30 05:03:02;;;;;;;;;;;15.80;99.90;;;;;;4975992;28;19926;-79
2023/07/30 05:05:28;;;;;;;;;;;15.80;99.90;;;;;;4976392;28;19969;-78
2023/07/30 05:07:53;;;;;;;;;;;15.80;99.90;;;;;;4976346;28;19973;-78
2023/07/30 05:10:19;;;;;;;;;;;15.80;99.90;;;;;;4975786;28;20404;-78
2023/07/30 05:12:44;;;;;;;;;;;15.90;99.90;;;;;;4975956;28;19926;-78
2023/07/30 05:15:10;;;;;;;;;;;15.90;99.90;;;;;;4975760;28;19929;-76
2023/07/30 05:17:35;;;;;;;;;;;15.90;99.90;;;;;;4975821;28;19922;-77
2023/07/30 05:20:01;;;;;;;;;;;16.00;99.90;;;;;;4975648;28;19929;-77
2023/07/30 05:22:27;;;;;;;;;;;16.00;99.90;;;;;;4975577;28;19933;-76
2023/07/30 05:24:52;;;;;;;;;;;16.00;99.90;;;;;;4976749;28;19925;-77
2023/07/30 05:27:18;;;;;;;;;;;16.00;99.90;;;;;;4975814;28;19926;-76
2023/07/30 05:29:43;;;;;;;;;;;16.00;99.90;;;;;;4975483;28;19922;-77
2023/07/30 05:32:09;;;;;;;;;;;16.10;99.90;;;;;;4975467;28;19922;-77
2023/07/30 05:34:34;;;;;;;;;;;16.10;99.90;;;;;;4975966;28;19933;-77
2023/07/30 05:37:00;;;;;;;;;;;16.10;99.90;;;;;;4975858;28;20377;-78
2023/07/30 05:39:26;;;;;;;;;;;16.20;99.90;;;;;;4975334;28;19926;-78
2023/07/30 05:41:51;;;;;;;;;;;16.20;99.90;;;;;;4975315;28;19926;-77
2023/07/30 05:44:17;;;;;;;;;;;16.20;99.90;;;;;;4977164;28;20230;-78
2023/07/30 05:46:42;;;;;;;;;;;16.20;99.90;;;;;;4975173;28;20295;-77
2023/07/30 05:49:08;;;;;;;;;;;16.30;99.90;;;;;;4975982;28;19976;-77
2023/07/30 05:51:34;;;;;;;;;;;16.30;99.90;;;;;;4975278;28;19922;-77
2023/07/30 05:53:59;;;;;;;;;;;16.30;99.90;;;;;;4975051;28;19922;-77
2023/07/30 05:56:25;;;;;;;;;;;16.40;99.90;;;;;;4974943;28;20016;-77
2023/07/30 05:58:50;;;;;;;;;;;16.40;99.90;;;;;;4976344;28;19969;-76
2023/07/30 06:01:16;;;;;;;;;;;16.40;99.90;;;;;;4958877;28;20365;-77
2023/07/30 06:03:41;;;;;;;;;;;16.50;99.90;;;;;;4974788;28;20382;-77
2023/07/30 06:06:07;;;;;;;;;;;16.50;99.90;;;;;;4976061;28;20039;-78
2023/07/30 06:08:32;;;;;;;;;;;16.50;99.90;;;;;;4974962;28;20477;-78
2023/07/30 06:11:04;;;;;;;;;;;16.50;99.90;;;;;;4976096;28;19921;-77
2023/07/30 06:13:30;;;;;;;;;;;16.60;99.90;;;;;;4974663;28;19937;-77
2023/07/30 06:15:55;;;;;;;;;;;16.60;99.90;;;;;;4976048;28;19922;-76
2023/07/30 06:18:21;;;;;;;;;;;16.60;99.90;;;;;;4974645;28;19922;-77
2023/07/30 06:20:46;;;;;;;;;;;16.60;99.90;;;;;;4975583;28;19973;-78
2023/07/30 06:23:12;;;;;;;;;;;16.70;99.90;;;;;;4974605;28;19926;-78
2023/07/30 06:25:38;;;;;;;;;;;16.70;99.90;;;;;;4974474;28;19922;-77
2023/07/30 06:28:04;;;;;;;;;;;16.70;99.90;;;;;;4985925;28;19940;-77
2023/07/30 06:30:30;;;;;;;;;;;16.80;99.90;;;;;;4993839;28;20346;-77
2023/07/30 06:32:55;;;;;;;;;;;16.80;99.90;;;;;;4994131;28;19929;-77
2023/07/30 06:35:21;;;;;;;;;;;16.80;99.90;;;;;;4994917;28;19922;-78
2023/07/30 06:37:46;;;;;;;;;;;16.80;99.90;;;;;;4977455;28;19953;-77
2023/07/30 06:40:12;;;;;;;;;;;16.90;99.90;;;;;;4993985;28;19922;-76
2023/07/30 06:42:37;;;;;;;;;;;16.90;99.90;;;;;;4993613;28;19925;-76
2023/07/30 06:45:03;;;;;;;;;;;17.00;99.90;;;;;;4993802;28;19921;-77
2023/07/30 06:47:28;;;;;;;;;;;17.00;99.90;;;;;;4993401;28;19921;-78
2023/07/30 06:49:54;;;;;;;;;;;17.10;99.90;;;;;;4993061;28;19928;-77
2023/07/30 06:52:20;;;;;;;;;;;17.20;99.90;;;;;;4977439;28;20025;-77
2023/07/30 06:54:45;;;;;;;;;;;17.20;99.90;;;;;;4993563;28;20030;-77
2023/07/30 06:57:11;;;;;;;;;;;17.20;99.90;;;;;;4993704;28;20036;-77
2023/07/30 06:59:36;;;;;;;;;;;17.30;99.90;;;;;;4993644;28;19995;-77
2023/07/30 07:02:02;;;;;;;;;;;17.30;99.90;;;;;;4993415;28;20453;-78
2023/07/30 07:04:28;;;;;;;;;;;17.30;99.90;;;;;;4993475;28;20412;-77
2023/07/30 07:06:53;;;;;;;;;;;17.30;99.90;;;;;;4994791;28;19928;-77
2023/07/30 07:09:19;;;;;;;;;;;17.30;99.90;;;;;;4993234;28;20004;-77
2023/07/30 07:11:44;;;;;;;;;;;17.30;99.90;;;;;;4994565;28;19922;-78
2023/07/30 07:14:10;;;;;;;;;;;17.40;99.90;;;;;;4993239;28;19980;-77
2023/07/30 07:16:36;;;;;;;;;;;17.40;99.90;;;;;;4993521;28;20289;-78
2023/07/30 07:19:01;;;;;;;;;;;17.40;99.90;;;;;;4993480;28;20370;-76
2023/07/30 07:21:27;;;;;;;;;;;17.50;99.90;;;;;;4993178;28;19926;-76
2023/07/30 07:23:52;;;;;;;;;;;17.50;99.90;;;;;;4994417;28;19922;-77
2023/07/30 07:26:18;;;;;;;;;;;17.50;99.90;;;;;;4994310;28;19926;-78
2023/07/30 07:28:43;;;;;;;;;;;17.60;99.90;;;;;;4993034;28;20057;-77
2023/07/30 07:31:09;;;;;;;;;;;17.60;99.90;;;;;;4992914;28;20012;-78
2023/07/30 07:33:34;;;;;;;;;;;17.70;99.90;;;;;;4993295;28;19926;-77
2023/07/30 07:36:04;;;;;;;;;;;17.70;99.90;;;;;;4994214;28;20377;-77
2023/07/30 07:38:29;;;;;;;;;;;17.70;99.90;;;;;;4992853;28;19922;-77
2023/07/30 07:40:55;;;;;;;;;;;17.70;99.90;;;;;;4993903;28;19925;-76
2023/07/30 07:43:20;;;;;;;;;;;17.60;99.90;;;;;;4992895;28;20004;-78
2023/07/30 07:45:46;;;;;;;;;;;17.50;99.90;;;;;;4992856;28;20021;-77
2023/07/30 07:48:11;;;;;;;;;;;17.50;99.90;;;;;;4992849;28;20008;-78
2023/07/30 07:50:37;;;;;;;;;;;17.20;99.90;;;;;;4976562;28;19976;-79
2023/07/30 07:53:02;;;;;;;;;;;17.00;99.90;;;;;;4992723;28;20371;-78
2023/07/30 07:55:28;;;;;;;;;;;16.90;99.90;;;;;;4992682;28;19925;-78
2023/07/30 07:57:53;;;;;;;;;;;16.70;99.90;;;;;;4994549;28;20009;-79
2023/07/30 08:00:19;;;;;;;;;;;16.60;99.90;;;;;;4992456;28;19933;-77
2023/07/30 08:02:45;;;;;;;;;;;16.50;99.90;;;;;;4995560;28;19949;-77
2023/07/30 08:05:10;;;;;;;;;;;16.40;99.90;;;;;;4996650;28;19933;-79
2023/07/30 08:07:36;;;;;;;;;;;16.40;99.90;;;;;;4996603;28;19929;-78
2023/07/30 08:10:02;;;;;;;;;;;16.30;99.90;;;;;;4996511;28;19944;-79
2023/07/30 08:12:27;;;;;;;;;;;16.30;99.90;;;;;;4996598;28;19965;-78
2023/07/30 08:14:53;;;;;;;;;;;16.30;99.90;;;;;;4996618;28;20379;-77
2023/07/30 08:17:18;;;;;;;;;;;16.30;99.90;;;;;;4996153;28;20013;-78
2023/07/30 08:19:44;;;;;;;;;;;16.30;99.90;;;;;;4996372;28;19929;-78
2023/07/30 08:22:10;;;;;;;;;;;16.30;99.90;;;;;;4997469;28;20449;-78
2023/07/30 08:24:35;;;;;;;;;;;16.30;99.90;;;;;;4996341;28;20369;-77
2023/07/30 08:27:01;;;;;;;;;;;16.30;99.90;;;;;;4996499;28;19921;-77
2023/07/30 08:29:27;;;;;;;;;;;16.30;99.90;;;;;;4996030;28;19972;-78
2023/07/30 08:31:53;;;;;;;;;;;16.30;99.90;;;;;;4995819;28;19926;-77
2023/07/30 08:34:18;;;;;;;;;;;16.30;99.90;;;;;;4995975;28;19922;-77
2023/07/30 08:36:44;;;;;;;;;;;16.30;99.90;;;;;;4996299;28;19969;-77
2023/07/30 08:39:09;;;;;;;;;;;16.30;99.90;;;;;;4979554;28;20377;-78
2023/07/30 08:41:35;;;;;;;;;;;16.40;99.90;;;;;;4996006;28;19937;-78
2023/07/30 08:44:01;;;;;;;;;;;16.40;99.90;;;;;;4979679;28;19922;-76
2023/07/30 08:46:27;;;;;;;;;;;16.40;99.90;;;;;;4995621;28;19922;-78
2023/07/30 08:48:53;;;;;;;;;;;16.40;99.90;;;;;;4997219;28;19922;-79
2023/07/30 08:51:19;;;;;;;;;;;16.30;99.90;;;;;;4995916;28;20290;-77
2023/07/30 08:53:45;;;;;;;;;;;16.30;99.90;;;;;;4995506;28;19925;-78
2023/07/30 08:56:11;;;;;;;;;;;16.20;99.90;;;;;;4995855;28;19968;-78
2023/07/30 08:58:36;;;;;;;;;;;16.10;99.90;;;;;;4995442;28;19922;-76
2023/07/30 09:01:05;;;;;;;;;;;15.90;99.90;;;;;;4995111;28;19925;-75
2023/07/30 09:03:32;;;;;;;;;;;15.80;99.90;;;;;;4995544;28;20321;-80
2023/07/30 09:05:57;;;;;;;;;;;15.50;99.90;;;;;;4995339;28;19929;-79
2023/07/30 09:08:23;;;;;;;;;;;15.30;99.90;;;;;;4995859;28;20285;-84
2023/07/30 09:10:50;;;;;;;;;;;15.10;99.90;;;;;;4996568;28;20379;-83
2023/07/30 09:13:20;;;;;;;;;;;15.10;99.90;;;;;;4996682;28;19932;-81
2023/07/30 09:15:47;;;;;;;;;;;15.10;99.90;;;;;;4995950;28;19986;-82
2023/07/30 09:18:16;;;;;;;;;;;15.10;99.90;;;;;;4995643;28;19921;-81
2023/07/30 09:20:42;;;;;;;;;;;15.20;99.90;;;;;;4995149;28;19922;-79
2023/07/30 09:23:08;;;;;;;;;;;15.20;99.90;;;;;;4995355;28;19933;-79
2023/07/30 09:25:34;;;;;;;;;;;15.30;99.90;;;;;;4995338;28;19922;-79
2023/07/30 09:27:59;;;;;;;;;;;15.30;99.90;;;;;;4995134;28;20056;-78
2023/07/30 09:30:27;;;;;;;;;;;15.30;99.90;;;;;;4994998;28;19984;-79
2023/07/30 09:32:53;;;;;;;;;;;15.40;99.90;;;;;;4995328;28;19922;-78
2023/07/30 09:35:19;;;;;;;;;;;15.40;99.90;;;;;;4995548;28;20362;-79
2023/07/30 09:37:45;;;;;;;;;;;15.40;99.90;;;;;;4995207;28;20417;-78
2023/07/30 09:40:12;;;;;;;;;;;15.50;99.90;;;;;;4995143;28;19922;-81
2023/07/30 09:42:39;;;;;;;;;;;15.50;99.90;;;;;;4996409;28;20297;-81
2023/07/30 09:45:07;;;;;;;;;;;15.60;99.90;;;;;;4995512;28;20196;-80
2023/07/30 09:47:33;;;;;;;;;;;15.60;99.90;;;;;;4995121;28;19926;-79
2023/07/30 09:49:59;;;;;;;;;;;15.70;99.90;;;;;;4995226;28;19922;-80
2023/07/30 09:52:25;;;;;;;;;;;15.80;99.90;;;;;;4979262;28;20443;-81
2023/07/30 09:54:51;;;;;;;;;;;16.00;99.90;;;;;;4983861;28;19945;-81
2023/07/30 09:57:17;;;;;;;;;;;16.30;99.90;;;;;;4977114;28;19922;-80
2023/07/30 09:59:43;;;;;;;;;;;16.50;99.90;;;;;;4985226;28;19945;-82
2023/07/30 10:02:10;;;;;;;;;;;16.70;99.90;;;;;;4994579;28;19926;-81
2023/07/30 10:04:37;;;;;;;;;;;16.70;99.90;;;;;;4994839;28;19933;-80
2023/07/30 10:07:11;;;;;;;;;;;16.90;99.90;;;;;;4995090;28;19922;-80
2023/07/30 10:09:43;;;;;;;;;;;17.00;99.90;;;;;;4996153;28;20012;-81
2023/07/30 10:12:24;;;;;;;;;;;17.20;99.90;;;;;;4994643;28;19921;-80
2023/07/30 10:14:50;;;;;;;;;;;17.30;99.90;;;;;;4994014;28;20397;-79
2023/07/30 10:17:16;;;;;;;;;;;17.40;99.90;;;;;;4994156;28;19964;-75
2023/07/30 10:19:46;;;;;;;;;;;17.40;99.90;;;;;;4995549;28;20266;-79
2023/07/30 10:22:18;;;;;;;;;;;17.40;99.90;;;;;;4994544;28;19926;-80
2023/07/30 10:25:19;;;;;;;;;;;17.30;99.90;;;;;;4994997;28;20274;-80
2023/07/30 10:27:49;;;;;;;;;;;17.30;99.90;;;;;;4919807;29;20272;-81
2023/07/30 10:30:19;;;;;;;;;;;17.20;99.90;;;;;;4979881;28;19929;-78
2023/07/30 10:32:59;;;;;;;;;;;17.20;99.90;;;;;;4994404;28;19922;-80
2023/07/30 10:35:41;;;;;;;;;;;17.10;99.90;;;;;;4993791;28;19932;-79
2023/07/30 10:38:14;;;;;;;;;;;17.10;99.90;;;;;;4993865;28;19972;-78
2023/07/30 10:40:40;;;;;;;;;;;17.30;99.90;;;;;;4995318;28;19961;-78
2023/07/30 10:43:15;;;;;;;;;;;17.60;99.90;;;;;;4987684;28;19930;-79
2023/07/30 10:45:48;;;;;;;;;;;17.70;99.90;;;;;;4974581;28;19976;-79
2023/07/30 10:48:13;;;;;;;;;;;17.90;99.90;;;;;;4973483;28;19922;-80
2023/07/30 10:50:39;;;;;;;;;;;18.20;99.90;;;;;;4974459;28;19976;-79
2023/07/30 10:53:07;;;;;;;;;;;18.50;99.90;;;;;;4972091;28;20194;-78
2023/07/30 10:55:33;;;;;;;;;;;18.70;99.90;;;;;;4973273;28;20294;-83
2023/07/30 10:57:59;;;;;;;;;;;18.80;99.90;;;;;;4974084;28;19922;-80
2023/07/30 11:00:25;;;;;;;;;;;18.80;99.90;;;;;;4974349;28;19944;-85
2023/07/30 11:02:54;;;;;;;;;;;18.90;99.90;;;;;;4974419;28;19932;-80
2023/07/30 11:05:19;;;;;;;;;;;18.90;99.90;;;;;;4958160;28;20393;-78
2023/07/30 11:07:52;;;;;;;;;;;19.00;99.90;;;;;;4973826;28;19976;-77
2023/07/30 11:10:17;;;;;;;;;;;18.80;99.90;;;;;;4974479;28;19922;-77
2023/07/30 11:12:43;;;;;;;;;;;18.80;99.90;;;;;;4974154;28;20306;-81
2023/07/30 11:15:09;;;;;;;;;;;18.70;99.90;;;;;;4958143;28;19992;-81
2023/07/30 11:17:35;;;;;;;;;;;18.60;99.90;;;;;;4975468;28;19926;-77
2023/07/30 11:20:00;;;;;;;;;;;18.50;99.90;;;;;;4973947;28;19922;-80
2023/07/30 11:22:32;;;;;;;;;;;18.50;99.90;;;;;;4975811;28;19926;-80
2023/07/30 11:24:58;;;;;;;;;;;18.50;99.90;;;;;;4973715;28;19922;-79
2023/07/30 11:27:24;;;;;;;;;;;18.50;99.90;;;;;;4973836;28;19926;-81
2023/07/30 11:29:56;;;;;;;;;;;18.80;99.90;;;;;;4974026;28;20305;-76
2023/07/30 11:32:25;;;;;;;;;;;18.80;99.90;;;;;;4973884;28;19922;-77
2023/07/30 11:34:51;;;;;;;;;;;18.80;99.90;;;;;;4973968;28;20000;-79
2023/07/30 11:37:16;;;;;;;;;;;18.70;99.90;;;;;;4961621;28;20365;-78
2023/07/30 11:39:42;;;;;;;;;;;18.60;99.90;;;;;;4977649;28;19929;-79
2023/07/30 11:42:08;;;;;;;;;;;18.50;99.90;;;;;;4977614;28;20288;-79
2023/07/30 11:44:40;;;;;;;;;;;18.30;99.90;;;;;;4977842;28;20397;-79
2023/07/30 11:47:06;;;;;;;;;;;18.30;99.90;;;;;;4978537;28;19926;-80
2023/07/30 11:49:31;;;;;;;;;;;18.10;99.90;;;;;;4984795;28;20363;-78
2023/07/30 11:52:10;;;;;;;;;;;17.80;99.90;;;;;;4978237;28;19981;-81
2023/07/30 11:54:36;;;;;;;;;;;17.40;99.90;;;;;;4980112;28;19995;-81
2023/07/30 11:57:02;;;;;;;;;;;17.20;99.90;;;;;;4977902;28;19931;-82
2023/07/30 11:59:27;;;;;;;;;;;16.90;99.90;;;;;;4977803;28;19926;-81
2023/07/30 12:01:53;;;;;;;;;;;16.80;99.90;;;;;;4977326;28;19953;-84
2023/07/30 12:04:19;;;;;;;;;;;16.90;99.90;;;;;;4961658;28;19922;-82
2023/07/30 12:06:48;;;;;;;;;;;16.90;99.90;;;;;;4978530;28;19929;-81
2023/07/30 12:09:15;;;;;;;;;;;16.90;99.90;;;;;;4979119;28;19930;-82
2023/07/30 12:11:52;;;;;;;;;;;16.90;99.90;;;;;;4977908;28;20271;-82
2023/07/30 12:14:19;;;;;;;;;;;16.90;99.90;;;;;;4977623;28;19932;-79
2023/07/30 12:16:45;;;;;;;;;;;16.90;99.90;;;;;;4961306;28;19929;-82
2023/07/30 12:19:10;;;;;;;;;;;16.90;99.90;;;;;;4977852;28;20373;-79
2023/07/30 12:21:36;;;;;;;;;;;16.90;99.90;;;;;;4977156;28;20032;-81
2023/07/30 12:24:02;;;;;;;;;;;16.90;99.90;;;;;;4977460;28;19922;-80
2023/07/30 12:26:27;;;;;;;;;;;16.80;99.90;;;;;;4978064;28;20366;-82
2023/07/30 12:28:53;;;;;;;;;;;16.60;99.90;;;;;;4961296;28;19969;-81
2023/07/30 12:31:18;;;;;;;;;;;16.50;99.90;;;;;;4977032;28;19921;-82
2023/07/30 12:33:44;;;;;;;;;;;16.50;99.90;;;;;;4977469;28;20386;-82
2023/07/30 12:36:09;;;;;;;;;;;16.50;99.90;;;;;;4977655;28;20126;-82
2023/07/30 12:38:35;;;;;;;;;;;16.60;99.90;;;;;;4977371;28;19926;-81
2023/07/30 12:41:00;;;;;;;;;;;16.80;99.90;;;;;;4978344;28;20329;-83
2023/07/30 12:43:26;;;;;;;;;;;17.10;99.90;;;;;;4976818;28;19933;-81
2023/07/30 12:45:52;;;;;;;;;;;17.20;99.90;;;;;;4978095;28;19923;-80
2023/07/30 12:48:17;;;;;;;;;;;17.30;99.90;;;;;;4975861;28;19976;-83
2023/07/30 12:50:43;;;;;;;;;;;17.40;99.90;;;;;;4976762;28;19922;-81
2023/07/30 12:53:08;;;;;;;;;;;17.60;99.90;;;;;;4977675;28;19930;-81
2023/07/30 12:55:34;;;;;;;;;;;17.90;99.90;;;;;;4976635;28;19929;-81
2023/07/30 12:57:59;;;;;;;;;;;18.00;99.90;;;;;;4977015;28;19988;-78
2023/07/30 13:00:25;;;;;;;;;;;18.00;99.90;;;;;;4959690;28;19973;-82
2023/07/30 13:02:55;;;;;;;;;;;18.10;99.90;;;;;;4976105;28;19926;-81
2023/07/30 13:05:21;;;;;;;;;;;18.20;99.90;;;;;;4977563;28;19922;-81
2023/07/30 13:07:46;;;;;;;;;;;18.10;99.90;;;;;;4960544;28;20318;-79
2023/07/30 13:10:12;;;;;;;;;;;18.00;99.90;;;;;;4976106;28;19922;-80
2023/07/30 13:12:37;;;;;;;;;;;18.00;99.90;;;;;;4976366;28;19922;-77
2023/07/30 13:15:03;;;;;;;;;;;17.90;99.90;;;;;;4976011;28;19928;-76
2023/07/30 13:17:29;;;;;;;;;;;17.90;99.90;;;;;;4977368;28;19922;-79
2023/07/30 13:19:54;;;;;;;;;;;18.00;99.90;;;;;;4959552;28;19988;-75
2023/07/30 13:22:20;;;;;;;;;;;18.10;99.90;;;;;;4976967;28;19933;-77
2023/07/30 13:24:45;;;;;;;;;;;18.40;99.90;;;;;;4976199;28;19926;-78
2023/07/30 13:27:11;;;;;;;;;;;18.60;99.90;;;;;;4977081;28;20342;-79
2023/07/30 13:29:36;;;;;;;;;;;18.90;99.90;;;;;;4976231;28;20361;-79
2023/07/30 13:32:02;;;;;;;;;;;18.80;99.90;;;;;;4977201;28;20271;-80
2023/07/30 13:34:28;;;;;;;;;;;18.80;99.90;;;;;;4977953;28;19922;-83
2023/07/30 13:36:53;;;;;;;;;;;18.70;99.90;;;;;;4977567;28;19925;-80
2023/07/30 13:39:19;;;;;;;;;;;18.60;99.90;;;;;;4959933;28;20016;-81
2023/07/30 13:41:45;;;;;;;;;;;18.50;99.90;;;;;;4975800;28;19937;-79
2023/07/30 13:44:11;;;;;;;;;;;18.30;99.90;;;;;;4975796;28;19922;-79
2023/07/30 13:46:40;;;;;;;;;;;18.30;99.90;;;;;;4976442;28;20361;-80
2023/07/30 13:49:06;;;;;;;;;;;18.30;99.90;;;;;;4975379;28;20021;-79
2023/07/30 13:51:32;;;;;;;;;;;18.30;99.90;;;;;;4959241;28;19974;-78
2023/07/30 13:54:01;;;;;;;;;;;18.50;99.90;;;;;;4975654;28;19922;-80
2023/07/30 13:56:27;;;;;;;;;;;18.60;99.90;;;;;;4959695;28;19929;-79
2023/07/30 13:58:52;;;;;;;;;;;18.80;99.90;;;;;;4974308;28;19922;-79
2023/07/30 14:01:18;;;;;;;;;;;18.50;99.90;;;;;;4975285;28;20078;-79
2023/07/30 14:03:44;;;;;;;;;;;18.50;99.90;;;;;;4975455;28;19929;-79
2023/07/30 14:06:10;;;;;;;;;;;18.40;99.90;;;;;;4975050;28;20424;-77
2023/07/30 14:08:35;;;;;;;;;;;18.30;99.90;;;;;;4975610;28;19926;-79
2023/07/30 14:11:01;;;;;;;;;;;18.30;99.90;;;;;;4974793;28;19922;-79
2023/07/30 14:13:26;;;;;;;;;;;18.20;99.90;;;;;;4975477;28;19922;-80
2023/07/30 14:15:52;;;;;;;;;;;18.10;99.90;;;;;;4975653;28;20001;-77
2023/07/30 14:18:18;;;;;;;;;;;18.10;99.90;;;;;;4974631;28;19926;-81
2023/07/30 14:20:44;;;;;;;;;;;17.70;99.90;;;;;;4974583;28;19929;-84
2023/07/30 14:23:11;;;;;;;;;;;17.30;99.90;;;;;;4976703;28;19926;-80
2023/07/30 14:25:37;;;;;;;;;;;16.90;99.90;;;;;;4975374;28;20413;-84
2023/07/30 14:28:02;;;;;;;;;;;16.90;99.90;;;;;;4974740;28;20021;-81
2023/07/30 14:30:28;;;;;;;;;;;16.90;99.90;;;;;;4974656;28;20008;-83
2023/07/30 14:32:54;;;;;;;;;;;16.90;99.90;;;;;;4975626;28;19944;-81
2023/07/30 14:35:20;;;;;;;;;;;16.90;99.90;;;;;;4974813;28;19977;-82
2023/07/30 14:37:45;;;;;;;;;;;17.00;99.90;;;;;;4975986;28;20294;-81
2023/07/30 14:40:11;;;;;;;;;;;17.10;99.90;;;;;;4975844;28;19926;-83
2023/07/30 14:42:36;;;;;;;;;;;17.10;99.90;;;;;;4974962;28;20429;-82
2023/07/30 14:45:02;;;;;;;;;;;17.20;99.90;;;;;;4976066;28;20313;-83
2023/07/30 14:47:28;;;;;;;;;;;17.10;99.90;;;;;;4975148;28;20413;-82
2023/07/30 14:49:53;;;;;;;;;;;17.10;99.90;;;;;;4974275;28;19922;-83
2023/07/30 14:52:19;;;;;;;;;;;17.10;99.90;;;;;;4974345;28;19922;-82
2023/07/30 14:54:45;;;;;;;;;;;17.00;99.90;;;;;;4976353;28;19922;-82
2023/07/30 14:57:11;;;;;;;;;;;16.90;99.90;;;;;;4974742;28;20394;-80
2023/07/30 14:59:37;;;;;;;;;;;16.90;99.90;;;;;;4975418;28;19977;-82
2023/07/30 15:02:03;;;;;;;;;;;17.00;99.90;;;;;;4974107;28;19926;-81
2023/07/30 15:04:29;;;;;;;;;;;17.00;99.90;;;;;;4958378;28;19922;-81
2023/07/30 15:06:55;;;;;;;;;;;17.10;99.90;;;;;;4974571;28;19970;-81
2023/07/30 15:09:21;;;;;;;;;;;17.30;99.90;;;;;;4976034;28;20354;-80
2023/07/30 15:11:46;;;;;;;;;;;17.40;99.90;;;;;;4975674;28;19972;-79
2023/07/30 15:14:12;;;;;;;;;;;17.50;99.90;;;;;;4974456;28;20286;-82
2023/07/30 15:16:37;;;;;;;;;;;17.60;99.90;;;;;;4975764;28;19922;-82
2023/07/30 15:19:03;;;;;;;;;;;17.80;99.90;;;;;;4974401;28;20297;-82
2023/07/30 15:21:31;;;;;;;;;;;17.90;99.90;;;;;;4974438;28;20210;-83
2023/07/30 15:23:58;;;;;;;;;;;18.10;99.90;;;;;;4975369;28;20031;-79
2023/07/30 15:26:23;;;;;;;;;;;18.50;99.90;;;;;;4974237;28;19969;-81
2023/07/30 15:28:49;;;;;;;;;;;18.60;99.90;;;;;;4974218;28;19929;-81
2023/07/30 15:31:15;;;;;;;;;;;18.70;99.90;;;;;;4957819;28;19972;-82
2023/07/30 15:33:40;;;;;;;;;;;18.70;99.90;;;;;;4974075;28;19950;-80
2023/07/30 15:36:06;;;;;;;;;;;18.90;99.90;;;;;;4974161;28;19933;-81
2023/07/30 15:38:32;;;;;;;;;;;19.00;99.90;;;;;;4975188;28;20430;-81
2023/07/30 15:40:58;;;;;;;;;;;19.10;99.90;;;;;;4974473;28;19930;-81
2023/07/30 15:43:23;;;;;;;;;;;19.10;99.90;;;;;;4974252;28;19968;-77
2023/07/30 15:45:52;;;;;;;;;;;19.00;99.90;;;;;;4974720;28;20001;-77
2023/07/30 15:48:18;;;;;;;;;;;18.80;99.90;;;;;;4974280;28;19933;-79
2023/07/30 15:50:43;;;;;;;;;;;18.80;99.90;;;;;;4975349;28;20012;-80
2023/07/30 15:53:09;;;;;;;;;;;19.00;99.90;;;;;;4973845;28;20044;-80
2023/07/30 15:55:35;;;;;;;;;;;19.00;99.90;;;;;;4973982;28;19929;-80
2023/07/30 15:58:00;;;;;;;;;;;18.90;99.90;;;;;;4973587;28;20323;-79
2023/07/30 16:00:26;;;;;;;;;;;18.90;99.90;;;;;;4973774;28;19932;-78
2023/07/30 16:02:51;;;;;;;;;;;18.90;99.90;;;;;;4959085;28;19929;-78
2023/07/30 16:05:17;;;;;;;;;;;18.90;99.90;;;;;;4958244;28;19922;-79
2023/07/30 16:07:42;;;;;;;;;;;18.80;99.90;;;;;;4973800;28;19997;-79
2023/07/30 16:10:08;;;;;;;;;;;18.80;99.90;;;;;;4957465;28;19922;-80
2023/07/30 16:12:34;;;;;;;;;;;18.80;99.90;;;;;;4973510;28;19922;-79
2023/07/30 16:15:00;;;;;;;;;;;18.80;99.90;;;;;;4974608;28;19922;-79
2023/07/30 16:17:25;;;;;;;;;;;18.80;99.90;;;;;;4972151;28;20022;-79
2023/07/30 16:19:51;;;;;;;;;;;18.80;99.90;;;;;;4973378;28;20387;-78
2023/07/30 16:22:17;;;;;;;;;;;18.90;99.90;;;;;;4973775;28;19922;-78
2023/07/30 16:24:43;;;;;;;;;;;18.80;99.90;;;;;;4977306;28;19922;-77
2023/07/30 16:27:10;;;;;;;;;;;18.80;99.90;;;;;;4976954;28;19922;-78
2023/07/30 16:29:36;;;;;;;;;;;18.70;99.90;;;;;;4977340;28;20387;-78
2023/07/30 16:32:04;;;;;;;;;;;18.80;99.90;;;;;;4978187;28;19922;-79
2023/07/30 16:34:30;;;;;;;;;;;18.80;99.90;;;;;;4980444;28;19922;-76
2023/07/30 16:36:56;;;;;;;;;;;18.80;99.90;;;;;;4980049;28;19933;-78
2023/07/30 16:39:22;;;;;;;;;;;18.80;99.90;;;;;;4981495;28;19926;-78
2023/07/30 16:41:48;;;;;;;;;;;18.80;99.90;;;;;;4979358;28;19922;-79
2023/07/30 16:44:15;;;;;;;;;;;18.80;99.90;;;;;;4992992;28;19922;-78
2023/07/30 16:46:40;;;;;;;;;;;18.80;99.90;;;;;;4984679;28;20433;-79
2023/07/30 16:49:07;;;;;;;;;;;18.80;99.90;;;;;;4986982;28;19965;-79
2023/07/30 16:51:33;;;;;;;;;;;18.70;99.90;;;;;;4990436;28;19921;-79
2023/07/30 16:53:58;;;;;;;;;;;18.70;99.90;;;;;;4992436;28;19928;-77
2023/07/30 16:56:24;;;;;;;;;;;18.70;99.90;;;;;;4980561;28;20652;-79
2023/07/30 16:58:50;;;;;;;;;;;18.70;99.90;;;;;;4983363;28;19971;-76
2023/07/30 17:01:15;;;;;;;;;;;18.60;99.90;;;;;;4979487;28;19930;-78
2023/07/30 17:03:41;;;;;;;;;;;18.70;99.90;;;;;;4983184;28;19933;-76
2023/07/30 17:06:07;;;;;;;;;;;18.70;99.90;;;;;;4981467;28;19930;-78
2023/07/30 17:08:32;;;;;;;;;;;18.60;99.90;;;;;;4979351;28;20311;-78
2023/07/30 17:11:02;;;;;;;;;;;18.60;99.90;;;;;;4977195;28;19945;-78
2023/07/30 17:13:30;;;;;;;;;;;18.60;99.90;;;;;;4989870;28;20329;-79
2023/07/30 17:15:55;;;;;;;;;;;18.60;99.90;;;;;;4993012;28;21200;-79
2023/07/30 17:18:21;;;;;;;;;;;18.60;99.90;;;;;;4979817;28;19929;-80
2023/07/30 17:20:59;;;;;;;;;;;18.60;99.90;;;;;;4976876;28;20341;-81
2023/07/30 17:23:25;;;;;;;;;;;18.60;99.90;;;;;;4977602;28;19922;-79
2023/07/30 17:25:51;;;;;;;;;;;18.50;99.90;;;;;;4989473;28;20317;-78
2023/07/30 17:28:16;;;;;;;;;;;18.50;99.90;;;;;;4995375;28;19944;-79
2023/07/30 17:30:42;;;;;;;;;;;18.50;99.90;;;;;;4976552;28;20381;-79
2023/07/30 17:33:07;;;;;;;;;;;18.50;99.90;;;;;;4976447;28;20338;-79
2023/07/30 17:35:33;;;;;;;;;;;18.40;99.90;;;;;;4977284;28;19974;-79
2023/07/30 17:37:58;;;;;;;;;;;18.50;99.90;;;;;;4976718;28;20013;-79
2023/07/30 17:40:25;;;;;;;;;;;18.40;99.90;;;;;;4976424;28;19974;-79
2023/07/30 17:42:52;;;;;;;;;;;18.50;99.90;;;;;;4977021;28;19922;-80
2023/07/30 17:45:17;;;;;;;;;;;18.40;99.90;;;;;;4976804;28;19922;-79
2023/07/30 17:47:43;;;;;;;;;;;18.40;99.90;;;;;;4976333;28;20404;-79
2023/07/30 17:50:08;;;;;;;;;;;18.40;99.90;;;;;;4977312;28;19930;-78
2023/07/30 17:52:34;;;;;;;;;;;18.40;99.90;;;;;;4976419;28;19922;-79
2023/07/30 17:54:59;;;;;;;;;;;18.40;99.90;;;;;;4977616;28;19922;-79
2023/07/30 17:57:25;;;;;;;;;;;18.40;99.90;;;;;;4976366;28;19932;-80
2023/07/30 17:59:50;;;;;;;;;;;18.40;99.90;;;;;;4976046;28;19980;-80
2023/07/30 18:02:17;;;;;;;;;;;18.40;99.90;;;;;;4977453;28;20333;-77
2023/07/30 18:04:44;;;;;;;;;;;18.40;99.90;;;;;;4976215;28;19977;-78
2023/07/30 18:07:09;;;;;;;;;;;18.40;99.90;;;;;;4975956;28;20338;-79
2023/07/30 18:09:35;;;;;;;;;;;18.40;99.90;;;;;;4976166;28;19948;-80
2023/07/30 18:12:00;;;;;;;;;;;18.40;99.90;;;;;;4976173;28;19950;-79